sensor_id;sensor_type;location;lat;lon;timestamp;P1;durP1;ratioP1;P2;durP2;ratioP2
16228;SDS011;8222;51.462;12.630;2023-02-05T00:00:31;4.40;;;3.78;;
16228;SDS011;8222;51.462;12.630;2023-02-05T00:02:57;3.80;;;3.03;;
16228;SDS011;8222;51.462;12.630;2023-02-05T00:05:22;3.50;;;3.20;;
16228;SDS011;8222;51.462;12.630;2023-02-05T00:07:48;5.57;;;2.58;;
16228;SDS011;8222;51.462;12.630;2023-02-05T00:10:14;3.65;;;3.13;;
16228;SDS011;8222;51.462;12.630;2023-02-05T00:12:40;4.30;;;3.30;;
16228;SDS011;8222;51.462;12.630;2023-02-05T00:15:06;4.07;;;3.42;;
16228;SDS011;8222;51.462;12.630;2023-02-05T00:17:33;5.20;;;3.30;;
16228;SDS011;8222;51.462;12.630;2023-02-05T00:20:00;4.25;;;3.25;;
16228;SDS011;8222;51.462;12.630;2023-02-05T00:22:26;3.33;;;2.95;;
16228;SDS011;8222;51.462;12.630;2023-02-05T00:24:51;5.28;;;3.63;;
16228;SDS011;8222;51.462;12.630;2023-02-05T00:27:17;3.93;;;3.20;;
16228;SDS011;8222;51.462;12.630;2023-02-05T00:29:42;3.67;;;3.23;;
16228;SDS011;8222;51.462;12.630;2023-02-05T00:32:08;3.60;;;2.50;;
16228;SDS011;8222;51.462;12.630;2023-02-05T00:34:34;4.35;;;2.90;;
16228;SDS011;8222;51.462;12.630;2023-02-05T00:36:59;3.75;;;3.05;;
16228;SDS011;8222;51.462;12.630;2023-02-05T00:39:25;5.43;;;3.17;;
16228;SDS011;8222;51.462;12.630;2023-02-05T00:41:50;3.33;;;2.70;;
16228;SDS011;8222;51.462;12.630;2023-02-05T00:44:16;3.60;;;3.30;;
16228;SDS011;8222;51.462;12.630;2023-02-05T00:46:44;4.35;;;3.95;;
16228;SDS011;8222;51.462;12.630;2023-02-05T00:49:09;4.68;;;3.92;;
16228;SDS011;8222;51.462;12.630;2023-02-05T00:51:35;4.90;;;4.05;;
16228;SDS011;8222;51.462;12.630;2023-02-05T00:54:02;3.67;;;3.38;;
16228;SDS011;8222;51.462;12.630;2023-02-05T00:56:28;3.95;;;3.33;;
16228;SDS011;8222;51.462;12.630;2023-02-05T00:58:54;4.13;;;3.53;;
16228;SDS011;8222;51.462;12.630;2023-02-05T01:01:21;4.00;;;3.60;;
16228;SDS011;8222;51.462;12.630;2023-02-05T01:03:47;3.00;;;2.70;;
16228;SDS011;8222;51.462;12.630;2023-02-05T01:06:13;4.22;;;3.05;;
16228;SDS011;8222;51.462;12.630;2023-02-05T01:08:40;3.43;;;2.60;;
16228;SDS011;8222;51.462;12.630;2023-02-05T01:11:07;3.50;;;3.20;;
16228;SDS011;8222;51.462;12.630;2023-02-05T01:13:34;5.10;;;3.80;;
16228;SDS011;8222;51.462;12.630;2023-02-05T01:16:00;4.80;;;3.03;;
16228;SDS011;8222;51.462;12.630;2023-02-05T01:18:25;3.57;;;3.27;;
16228;SDS011;8222;51.462;12.630;2023-02-05T01:20:51;3.57;;;3.03;;
16228;SDS011;8222;51.462;12.630;2023-02-05T01:23:18;3.63;;;3.27;;
16228;SDS011;8222;51.462;12.630;2023-02-05T01:25:44;5.13;;;3.03;;
16228;SDS011;8222;51.462;12.630;2023-02-05T01:28:10;4.15;;;3.08;;
16228;SDS011;8222;51.462;12.630;2023-02-05T01:30:35;3.22;;;2.53;;
16228;SDS011;8222;51.462;12.630;2023-02-05T01:33:02;3.03;;;2.63;;
16228;SDS011;8222;51.462;12.630;2023-02-05T01:35:30;3.40;;;2.60;;
16228;SDS011;8222;51.462;12.630;2023-02-05T01:37:56;2.75;;;2.22;;
16228;SDS011;8222;51.462;12.630;2023-02-05T01:40:22;3.13;;;2.40;;
16228;SDS011;8222;51.462;12.630;2023-02-05T01:42:48;2.95;;;2.40;;
16228;SDS011;8222;51.462;12.630;2023-02-05T01:47:56;3.15;;;2.47;;
16228;SDS011;8222;51.462;12.630;2023-02-05T01:50:29;4.03;;;2.80;;
16228;SDS011;8222;51.462;12.630;2023-02-05T01:53:07;2.80;;;2.53;;
16228;SDS011;8222;51.462;12.630;2023-02-05T01:55:36;2.92;;;2.17;;
16228;SDS011;8222;51.462;12.630;2023-02-05T01:58:05;3.03;;;2.38;;
16228;SDS011;8222;51.462;12.630;2023-02-05T02:00:31;3.05;;;2.40;;
16228;SDS011;8222;51.462;12.630;2023-02-05T02:02:57;2.80;;;2.15;;
16228;SDS011;8222;51.462;12.630;2023-02-05T02:05:23;2.55;;;1.95;;
16228;SDS011;8222;51.462;12.630;2023-02-05T02:07:49;3.40;;;1.87;;
16228;SDS011;8222;51.462;12.630;2023-02-05T02:10:17;2.65;;;1.85;;
16228;SDS011;8222;51.462;12.630;2023-02-05T02:12:44;3.42;;;2.20;;
16228;SDS011;8222;51.462;12.630;2023-02-05T02:15:12;2.10;;;1.80;;
16228;SDS011;8222;51.462;12.630;2023-02-05T02:17:42;3.13;;;1.90;;
16228;SDS011;8222;51.462;12.630;2023-02-05T02:20:15;3.30;;;1.73;;
16228;SDS011;8222;51.462;12.630;2023-02-05T02:30:59;1.88;;;1.42;;
16228;SDS011;8222;51.462;12.630;2023-02-05T02:36:10;1.37;;;1.27;;
16228;SDS011;8222;51.462;12.630;2023-02-05T02:38:48;1.60;;;1.50;;
16228;SDS011;8222;51.462;12.630;2023-02-05T02:41:44;3.33;;;1.70;;
16228;SDS011;8222;51.462;12.630;2023-02-05T02:44:17;2.55;;;1.65;;
16228;SDS011;8222;51.462;12.630;2023-02-05T02:46:56;2.22;;;1.70;;
16228;SDS011;8222;51.462;12.630;2023-02-05T02:49:27;3.00;;;1.70;;
16228;SDS011;8222;51.462;12.630;2023-02-05T02:51:57;1.98;;;1.38;;
16228;SDS011;8222;51.462;12.630;2023-02-05T02:54:26;1.50;;;1.30;;
16228;SDS011;8222;51.462;12.630;2023-02-05T02:56:52;2.67;;;1.65;;
16228;SDS011;8222;51.462;12.630;2023-02-05T02:59:22;1.60;;;1.50;;
16228;SDS011;8222;51.462;12.630;2023-02-05T03:01:52;1.52;;;1.42;;
16228;SDS011;8222;51.462;12.630;2023-02-05T03:04:22;1.88;;;1.48;;
16228;SDS011;8222;51.462;12.630;2023-02-05T03:06:56;2.45;;;1.70;;
16228;SDS011;8222;51.462;12.630;2023-02-05T03:12:20;3.28;;;2.08;;
16228;SDS011;8222;51.462;12.630;2023-02-05T03:14:46;1.70;;;1.52;;
16228;SDS011;8222;51.462;12.630;2023-02-05T03:17:14;3.28;;;1.73;;
16228;SDS011;8222;51.462;12.630;2023-02-05T03:19:47;3.25;;;2.50;;
16228;SDS011;8222;51.462;12.630;2023-02-05T03:22:20;3.22;;;2.53;;
16228;SDS011;8222;51.462;12.630;2023-02-05T03:24:48;3.27;;;2.50;;
16228;SDS011;8222;51.462;12.630;2023-02-05T03:27:14;4.50;;;3.78;;
16228;SDS011;8222;51.462;12.630;2023-02-05T03:29:40;5.03;;;3.92;;
16228;SDS011;8222;51.462;12.630;2023-02-05T03:35:00;17.60;;;11.32;;
16228;SDS011;8222;51.462;12.630;2023-02-05T03:37:43;17.05;;;12.48;;
16228;SDS011;8222;51.462;12.630;2023-02-05T03:46:27;8.65;;;6.25;;
16228;SDS011;8222;51.462;12.630;2023-02-05T03:49:20;5.57;;;4.63;;
16228;SDS011;8222;51.462;12.630;2023-02-05T03:51:57;8.65;;;5.20;;
16228;SDS011;8222;51.462;12.630;2023-02-05T03:54:31;4.60;;;2.78;;
16228;SDS011;8222;51.462;12.630;2023-02-05T03:57:06;3.60;;;2.80;;
16228;SDS011;8222;51.462;12.630;2023-02-05T03:59:38;3.00;;;1.90;;
16228;SDS011;8222;51.462;12.630;2023-02-05T04:02:04;3.63;;;1.90;;
16228;SDS011;8222;51.462;12.630;2023-02-05T04:04:30;2.53;;;2.03;;
16228;SDS011;8222;51.462;12.630;2023-02-05T04:06:58;1.60;;;1.48;;
16228;SDS011;8222;51.462;12.630;2023-02-05T04:09:23;2.22;;;1.50;;
16228;SDS011;8222;51.462;12.630;2023-02-05T04:11:49;2.50;;;1.55;;
16228;SDS011;8222;51.462;12.630;2023-02-05T04:14:16;2.80;;;1.85;;
16228;SDS011;8222;51.462;12.630;2023-02-05T04:16:42;2.60;;;2.00;;
16228;SDS011;8222;51.462;12.630;2023-02-05T04:19:08;2.03;;;1.83;;
16228;SDS011;8222;51.462;12.630;2023-02-05T04:21:33;2.40;;;1.80;;
16228;SDS011;8222;51.462;12.630;2023-02-05T04:23:59;1.80;;;1.70;;
16228;SDS011;8222;51.462;12.630;2023-02-05T04:26:24;2.28;;;1.90;;
16228;SDS011;8222;51.462;12.630;2023-02-05T04:28:50;1.83;;;1.73;;
16228;SDS011;8222;51.462;12.630;2023-02-05T04:31:18;3.00;;;1.85;;
16228;SDS011;8222;51.462;12.630;2023-02-05T04:33:43;4.40;;;1.92;;
16228;SDS011;8222;51.462;12.630;2023-02-05T04:36:09;2.47;;;2.10;;
16228;SDS011;8222;51.462;12.630;2023-02-05T04:38:35;3.00;;;2.15;;
16228;SDS011;8222;51.462;12.630;2023-02-05T04:41:00;2.10;;;1.55;;
16228;SDS011;8222;51.462;12.630;2023-02-05T04:43:26;2.00;;;1.80;;
16228;SDS011;8222;51.462;12.630;2023-02-05T04:45:54;2.90;;;2.40;;
16228;SDS011;8222;51.462;12.630;2023-02-05T04:48:19;1.83;;;1.35;;
16228;SDS011;8222;51.462;12.630;2023-02-05T04:50:48;3.38;;;1.90;;
16228;SDS011;8222;51.462;12.630;2023-02-05T04:53:14;3.10;;;2.20;;
16228;SDS011;8222;51.462;12.630;2023-02-05T04:55:39;1.67;;;1.57;;
16228;SDS011;8222;51.462;12.630;2023-02-05T04:58:07;2.72;;;1.60;;
16228;SDS011;8222;51.462;12.630;2023-02-05T05:00:32;2.20;;;1.80;;
16228;SDS011;8222;51.462;12.630;2023-02-05T05:02:58;2.10;;;1.80;;
16228;SDS011;8222;51.462;12.630;2023-02-05T05:05:23;2.72;;;1.60;;
16228;SDS011;8222;51.462;12.630;2023-02-05T05:07:51;1.98;;;1.88;;
16228;SDS011;8222;51.462;12.630;2023-02-05T05:10:16;3.70;;;2.10;;
16228;SDS011;8222;51.462;12.630;2023-02-05T05:12:42;2.07;;;1.60;;
16228;SDS011;8222;51.462;12.630;2023-02-05T05:15:10;4.00;;;2.20;;
16228;SDS011;8222;51.462;12.630;2023-02-05T05:17:36;3.40;;;2.40;;
16228;SDS011;8222;51.462;12.630;2023-02-05T05:20:02;2.25;;;1.83;;
16228;SDS011;8222;51.462;12.630;2023-02-05T05:22:29;2.53;;;1.80;;
16228;SDS011;8222;51.462;12.630;2023-02-05T05:24:55;2.23;;;1.70;;
16228;SDS011;8222;51.462;12.630;2023-02-05T05:27:20;2.80;;;1.67;;
16228;SDS011;8222;51.462;12.630;2023-02-05T05:29:48;3.72;;;2.03;;
16228;SDS011;8222;51.462;12.630;2023-02-05T05:32:15;2.30;;;2.10;;
16228;SDS011;8222;51.462;12.630;2023-02-05T05:34:41;2.78;;;2.00;;
16228;SDS011;8222;51.462;12.630;2023-02-05T05:37:07;2.67;;;1.70;;
16228;SDS011;8222;51.462;12.630;2023-02-05T05:39:32;3.08;;;1.90;;
16228;SDS011;8222;51.462;12.630;2023-02-05T05:42:17;2.30;;;1.85;;
16228;SDS011;8222;51.462;12.630;2023-02-05T05:45:02;3.70;;;2.13;;
16228;SDS011;8222;51.462;12.630;2023-02-05T05:47:30;1.88;;;1.70;;
16228;SDS011;8222;51.462;12.630;2023-02-05T05:49:56;2.75;;;1.95;;
16228;SDS011;8222;51.462;12.630;2023-02-05T05:52:22;5.05;;;3.50;;
16228;SDS011;8222;51.462;12.630;2023-02-05T05:54:48;35.95;;;19.80;;
16228;SDS011;8222;51.462;12.630;2023-02-05T05:57:13;54.07;;;31.37;;
16228;SDS011;8222;51.462;12.630;2023-02-05T05:59:39;35.83;;;22.93;;
16228;SDS011;8222;51.462;12.630;2023-02-05T06:02:04;23.37;;;15.53;;
16228;SDS011;8222;51.462;12.630;2023-02-05T06:04:30;17.87;;;12.13;;
16228;SDS011;8222;51.462;12.630;2023-02-05T06:06:56;18.10;;;13.23;;
16228;SDS011;8222;51.462;12.630;2023-02-05T06:09:23;9.10;;;7.97;;
16228;SDS011;8222;51.462;12.630;2023-02-05T06:11:49;9.73;;;7.50;;
16228;SDS011;8222;51.462;12.630;2023-02-05T06:14:15;4.45;;;3.53;;
16228;SDS011;8222;51.462;12.630;2023-02-05T06:16:42;4.07;;;2.37;;
16228;SDS011;8222;51.462;12.630;2023-02-05T06:19:08;2.90;;;1.83;;
16228;SDS011;8222;51.462;12.630;2023-02-05T06:21:34;2.83;;;2.20;;
16228;SDS011;8222;51.462;12.630;2023-02-05T06:23:59;2.97;;;1.83;;
16228;SDS011;8222;51.462;12.630;2023-02-05T06:26:25;2.63;;;2.03;;
16228;SDS011;8222;51.462;12.630;2023-02-05T06:28:51;6.95;;;4.80;;
16228;SDS011;8222;51.462;12.630;2023-02-05T06:31:21;3.88;;;2.38;;
16228;SDS011;8222;51.462;12.630;2023-02-05T06:33:47;2.28;;;1.90;;
16228;SDS011;8222;51.462;12.630;2023-02-05T06:36:13;2.22;;;2.03;;
16228;SDS011;8222;51.462;12.630;2023-02-05T06:38:42;3.30;;;2.35;;
16228;SDS011;8222;51.462;12.630;2023-02-05T06:41:07;2.75;;;2.30;;
16228;SDS011;8222;51.462;12.630;2023-02-05T06:43:33;5.47;;;2.77;;
16228;SDS011;8222;51.462;12.630;2023-02-05T06:45:59;4.45;;;3.13;;
16228;SDS011;8222;51.462;12.630;2023-02-05T06:48:24;3.03;;;2.07;;
16228;SDS011;8222;51.462;12.630;2023-02-05T06:50:50;4.10;;;1.97;;
16228;SDS011;8222;51.462;12.630;2023-02-05T06:53:20;3.25;;;2.95;;
16228;SDS011;8222;51.462;12.630;2023-02-05T06:55:45;4.15;;;3.22;;
16228;SDS011;8222;51.462;12.630;2023-02-05T06:58:11;3.40;;;2.65;;
16228;SDS011;8222;51.462;12.630;2023-02-05T07:00:39;2.42;;;2.22;;
16228;SDS011;8222;51.462;12.630;2023-02-05T07:03:04;4.22;;;2.20;;
16228;SDS011;8222;51.462;12.630;2023-02-05T07:05:31;2.70;;;2.50;;
16228;SDS011;8222;51.462;12.630;2023-02-05T07:07:58;4.22;;;2.53;;
16228;SDS011;8222;51.462;12.630;2023-02-05T07:10:23;2.63;;;2.43;;
16228;SDS011;8222;51.462;12.630;2023-02-05T07:12:49;3.10;;;2.72;;
16228;SDS011;8222;51.462;12.630;2023-02-05T07:15:15;2.67;;;2.37;;
16228;SDS011;8222;51.462;12.630;2023-02-05T07:17:43;3.10;;;2.80;;
16228;SDS011;8222;51.462;12.630;2023-02-05T07:20:09;3.90;;;2.77;;
16228;SDS011;8222;51.462;12.630;2023-02-05T07:22:35;2.95;;;2.60;;
16228;SDS011;8222;51.462;12.630;2023-02-05T07:25:00;5.10;;;3.07;;
16228;SDS011;8222;51.462;12.630;2023-02-05T07:27:29;4.55;;;3.10;;
16228;SDS011;8222;51.462;12.630;2023-02-05T07:29:54;2.65;;;2.28;;
16228;SDS011;8222;51.462;12.630;2023-02-05T07:32:20;4.17;;;2.57;;
16228;SDS011;8222;51.462;12.630;2023-02-05T07:34:47;3.37;;;2.20;;
16228;SDS011;8222;51.462;12.630;2023-02-05T07:37:13;3.40;;;2.10;;
16228;SDS011;8222;51.462;12.630;2023-02-05T07:39:39;3.10;;;2.30;;
16228;SDS011;8222;51.462;12.630;2023-02-05T07:42:04;3.13;;;2.13;;
16228;SDS011;8222;51.462;12.630;2023-02-05T07:44:30;2.05;;;1.85;;
16228;SDS011;8222;51.462;12.630;2023-02-05T07:46:58;2.67;;;2.22;;
16228;SDS011;8222;51.462;12.630;2023-02-05T07:49:23;2.70;;;2.17;;
16228;SDS011;8222;51.462;12.630;2023-02-05T07:51:49;2.33;;;1.90;;
16228;SDS011;8222;51.462;12.630;2023-02-05T07:54:15;2.45;;;2.20;;
16228;SDS011;8222;51.462;12.630;2023-02-05T07:56:42;4.32;;;2.80;;
16228;SDS011;8222;51.462;12.630;2023-02-05T07:59:08;6.65;;;6.07;;
16228;SDS011;8222;51.462;12.630;2023-02-05T08:01:34;5.20;;;4.03;;
16228;SDS011;8222;51.462;12.630;2023-02-05T08:03:59;18.13;;;14.03;;
16228;SDS011;8222;51.462;12.630;2023-02-05T08:06:27;4.93;;;3.10;;
16228;SDS011;8222;51.462;12.630;2023-02-05T08:08:53;4.63;;;4.10;;
16228;SDS011;8222;51.462;12.630;2023-02-05T08:11:20;5.35;;;4.85;;
16228;SDS011;8222;51.462;12.630;2023-02-05T08:13:48;4.20;;;3.88;;
16228;SDS011;8222;51.462;12.630;2023-02-05T08:16:14;3.22;;;2.92;;
16228;SDS011;8222;51.462;12.630;2023-02-05T08:18:40;3.50;;;3.20;;
16228;SDS011;8222;51.462;12.630;2023-02-05T08:21:07;3.63;;;2.75;;
16228;SDS011;8222;51.462;12.630;2023-02-05T08:23:32;3.87;;;2.80;;
16228;SDS011;8222;51.462;12.630;2023-02-05T08:25:58;4.05;;;2.97;;
16228;SDS011;8222;51.462;12.630;2023-02-05T08:28:26;2.58;;;2.38;;
16228;SDS011;8222;51.462;12.630;2023-02-05T08:30:52;3.45;;;2.60;;
16228;SDS011;8222;51.462;12.630;2023-02-05T08:33:20;3.38;;;2.55;;
16228;SDS011;8222;51.462;12.630;2023-02-05T08:35:46;4.53;;;2.92;;
16228;SDS011;8222;51.462;12.630;2023-02-05T08:38:13;3.05;;;2.50;;
16228;SDS011;8222;51.462;12.630;2023-02-05T08:40:39;3.90;;;2.88;;
16228;SDS011;8222;51.462;12.630;2023-02-05T08:43:05;4.60;;;3.60;;
16228;SDS011;8222;51.462;12.630;2023-02-05T08:45:32;4.90;;;3.97;;
16228;SDS011;8222;51.462;12.630;2023-02-05T08:47:59;5.27;;;4.37;;
16228;SDS011;8222;51.462;12.630;2023-02-05T08:50:25;10.67;;;9.07;;
16228;SDS011;8222;51.462;12.630;2023-02-05T08:52:51;4.50;;;4.10;;
16228;SDS011;8222;51.462;12.630;2023-02-05T08:55:17;4.00;;;3.25;;
16228;SDS011;8222;51.462;12.630;2023-02-05T08:57:42;9.40;;;5.90;;
16228;SDS011;8222;51.462;12.630;2023-02-05T09:00:09;8.63;;;5.93;;
16228;SDS011;8222;51.462;12.630;2023-02-05T09:02:35;10.55;;;8.25;;
16228;SDS011;8222;51.462;12.630;2023-02-05T09:05:01;4.82;;;3.63;;
16228;SDS011;8222;51.462;12.630;2023-02-05T09:07:26;8.93;;;5.03;;
16228;SDS011;8222;51.462;12.630;2023-02-05T09:09:52;5.97;;;3.80;;
16228;SDS011;8222;51.462;12.630;2023-02-05T09:12:18;2.70;;;2.50;;
16228;SDS011;8222;51.462;12.630;2023-02-05T09:14:43;10.83;;;9.27;;
16228;SDS011;8222;51.462;12.630;2023-02-05T09:17:09;9.30;;;8.03;;
16228;SDS011;8222;51.462;12.630;2023-02-05T09:19:39;6.22;;;5.72;;
16228;SDS011;8222;51.462;12.630;2023-02-05T09:22:05;7.10;;;6.55;;
16228;SDS011;8222;51.462;12.630;2023-02-05T09:24:32;4.47;;;4.07;;
16228;SDS011;8222;51.462;12.630;2023-02-05T09:27:03;4.63;;;4.03;;
16228;SDS011;8222;51.462;12.630;2023-02-05T09:29:29;4.00;;;3.65;;
16228;SDS011;8222;51.462;12.630;2023-02-05T09:31:54;3.78;;;3.00;;
16228;SDS011;8222;51.462;12.630;2023-02-05T09:34:21;3.70;;;2.90;;
16228;SDS011;8222;51.462;12.630;2023-02-05T09:36:46;3.75;;;2.83;;
16228;SDS011;8222;51.462;12.630;2023-02-05T09:39:12;3.40;;;2.50;;
16228;SDS011;8222;51.462;12.630;2023-02-05T09:41:39;3.83;;;3.42;;
16228;SDS011;8222;51.462;12.630;2023-02-05T09:44:39;3.60;;;3.28;;
16228;SDS011;8222;51.462;12.630;2023-02-05T09:47:26;5.80;;;5.20;;
16228;SDS011;8222;51.462;12.630;2023-02-05T09:50:07;4.65;;;4.10;;
16228;SDS011;8222;51.462;12.630;2023-02-05T09:52:46;5.40;;;3.97;;
16228;SDS011;8222;51.462;12.630;2023-02-05T09:55:18;4.50;;;4.10;;
16228;SDS011;8222;51.462;12.630;2023-02-05T09:57:47;7.03;;;6.32;;
16228;SDS011;8222;51.462;12.630;2023-02-05T10:00:19;4.35;;;3.95;;
16228;SDS011;8222;51.462;12.630;2023-02-05T10:11:21;4.25;;;3.85;;
16228;SDS011;8222;51.462;12.630;2023-02-05T10:14:01;3.25;;;2.95;;
16228;SDS011;8222;51.462;12.630;2023-02-05T10:19:30;3.58;;;3.28;;
16228;SDS011;8222;51.462;12.630;2023-02-05T10:24:46;3.42;;;2.88;;
16228;SDS011;8222;51.462;12.630;2023-02-05T10:30:42;2.72;;;2.33;;
16228;SDS011;8222;51.462;12.630;2023-02-05T10:33:21;3.22;;;2.92;;
16228;SDS011;8222;51.462;12.630;2023-02-05T10:36:05;3.40;;;2.90;;
16228;SDS011;8222;51.462;12.630;2023-02-05T10:38:34;5.22;;;2.95;;
16228;SDS011;8222;51.462;12.630;2023-02-05T10:46:39;3.58;;;3.28;;
16228;SDS011;8222;51.462;12.630;2023-02-05T10:49:12;3.08;;;2.45;;
16228;SDS011;8222;51.462;12.630;2023-02-05T10:51:43;3.10;;;2.88;;
16228;SDS011;8222;51.462;12.630;2023-02-05T10:54:27;2.55;;;2.03;;
16228;SDS011;8222;51.462;12.630;2023-02-05T10:56:55;2.38;;;2.17;;
16228;SDS011;8222;51.462;12.630;2023-02-05T10:59:23;2.97;;;2.50;;
16228;SDS011;8222;51.462;12.630;2023-02-05T11:01:52;2.30;;;2.10;;
16228;SDS011;8222;51.462;12.630;2023-02-05T11:04:28;2.67;;;2.30;;
16228;SDS011;8222;51.462;12.630;2023-02-05T11:07:09;2.50;;;2.27;;
16228;SDS011;8222;51.462;12.630;2023-02-05T11:09:37;2.83;;;2.33;;
16228;SDS011;8222;51.462;12.630;2023-02-05T11:12:26;3.13;;;2.10;;
16228;SDS011;8222;51.462;12.630;2023-02-05T11:14:54;2.35;;;2.10;;
16228;SDS011;8222;51.462;12.630;2023-02-05T11:17:23;2.63;;;2.42;;
16228;SDS011;8222;51.462;12.630;2023-02-05T11:19:56;2.73;;;2.27;;
16228;SDS011;8222;51.462;12.630;2023-02-05T11:22:32;4.03;;;3.45;;
16228;SDS011;8222;51.462;12.630;2023-02-05T11:25:04;3.42;;;2.67;;
16228;SDS011;8222;51.462;12.630;2023-02-05T11:30:24;2.33;;;2.00;;
16228;SDS011;8222;51.462;12.630;2023-02-05T11:32:54;3.55;;;3.25;;
16228;SDS011;8222;51.462;12.630;2023-02-05T11:38:05;2.80;;;2.60;;
16228;SDS011;8222;51.462;12.630;2023-02-05T11:40:33;2.80;;;2.10;;
16228;SDS011;8222;51.462;12.630;2023-02-05T11:43:05;3.50;;;2.72;;
16228;SDS011;8222;51.462;12.630;2023-02-05T11:45:47;2.80;;;2.50;;
16228;SDS011;8222;51.462;12.630;2023-02-05T11:50:52;3.20;;;2.08;;
16228;SDS011;8222;51.462;12.630;2023-02-05T11:53:21;2.58;;;2.28;;
16228;SDS011;8222;51.462;12.630;2023-02-05T11:55:55;2.15;;;2.03;;
16228;SDS011;8222;51.462;12.630;2023-02-05T11:58:27;2.60;;;2.40;;
16228;SDS011;8222;51.462;12.630;2023-02-05T12:01:03;2.88;;;2.30;;
16228;SDS011;8222;51.462;12.630;2023-02-05T12:06:50;2.80;;;2.30;;
16228;SDS011;8222;51.462;12.630;2023-02-05T12:09:24;3.10;;;2.60;;
16228;SDS011;8222;51.462;12.630;2023-02-05T12:20:37;3.33;;;2.40;;
16228;SDS011;8222;51.462;12.630;2023-02-05T12:25:48;3.60;;;3.30;;
16228;SDS011;8222;51.462;12.630;2023-02-05T12:34:19;3.45;;;3.15;;
16228;SDS011;8222;51.462;12.630;2023-02-05T12:42:49;3.33;;;2.72;;
16228;SDS011;8222;51.462;12.630;2023-02-05T12:47:59;2.90;;;2.55;;
16228;SDS011;8222;51.462;12.630;2023-02-05T12:59:02;3.33;;;2.83;;
16228;SDS011;8222;51.462;12.630;2023-02-05T13:01:44;2.80;;;2.60;;
16228;SDS011;8222;51.462;12.630;2023-02-05T13:04:26;2.92;;;2.70;;
16228;SDS011;8222;51.462;12.630;2023-02-05T13:07:12;3.50;;;2.83;;
16228;SDS011;8222;51.462;12.630;2023-02-05T13:10:27;3.42;;;2.92;;
16228;SDS011;8222;51.462;12.630;2023-02-05T13:13:02;3.27;;;2.60;;
16228;SDS011;8222;51.462;12.630;2023-02-05T13:15:41;4.33;;;3.57;;
16228;SDS011;8222;51.462;12.630;2023-02-05T13:18:13;3.00;;;2.70;;
16228;SDS011;8222;51.462;12.630;2023-02-05T13:20:54;3.42;;;3.13;;
16228;SDS011;8222;51.462;12.630;2023-02-05T13:23:46;2.85;;;2.63;;
16228;SDS011;8222;51.462;12.630;2023-02-05T13:26:39;3.03;;;2.65;;
16228;SDS011;8222;51.462;12.630;2023-02-05T13:29:28;4.05;;;2.70;;
16228;SDS011;8222;51.462;12.630;2023-02-05T13:32:08;4.03;;;3.17;;
16228;SDS011;8222;51.462;12.630;2023-02-05T13:34:39;3.65;;;3.35;;
16228;SDS011;8222;51.462;12.630;2023-02-05T13:43:07;3.50;;;3.20;;
16228;SDS011;8222;51.462;12.630;2023-02-05T13:48:37;3.63;;;2.90;;
16228;SDS011;8222;51.462;12.630;2023-02-05T13:56:43;3.15;;;2.92;;
16228;SDS011;8222;51.462;12.630;2023-02-05T13:59:33;3.67;;;3.03;;
16228;SDS011;8222;51.462;12.630;2023-02-05T14:02:22;4.25;;;3.30;;
16228;SDS011;8222;51.462;12.630;2023-02-05T14:04:51;2.95;;;2.75;;
16228;SDS011;8222;51.462;12.630;2023-02-05T14:07:23;3.30;;;3.00;;
16228;SDS011;8222;51.462;12.630;2023-02-05T14:09:55;3.95;;;3.58;;
16228;SDS011;8222;51.462;12.630;2023-02-05T14:12:31;4.18;;;3.28;;
16228;SDS011;8222;51.462;12.630;2023-02-05T14:22:49;2.92;;;2.58;;
16228;SDS011;8222;51.462;12.630;2023-02-05T14:31:01;4.20;;;1.90;;
16228;SDS011;8222;51.462;12.630;2023-02-05T14:38:41;2.40;;;2.20;;
16228;SDS011;8222;51.462;12.630;2023-02-05T14:41:50;1.85;;;1.75;;
16228;SDS011;8222;51.462;12.630;2023-02-05T14:44:29;2.22;;;1.98;;
16228;SDS011;8222;51.462;12.630;2023-02-05T14:49:59;2.03;;;1.88;;
16228;SDS011;8222;51.462;12.630;2023-02-05T15:05:49;4.20;;;3.70;;
16228;SDS011;8222;51.462;12.630;2023-02-05T15:11:14;3.05;;;2.78;;
16228;SDS011;8222;51.462;12.630;2023-02-05T15:16:46;3.17;;;2.35;;
16228;SDS011;8222;51.462;12.630;2023-02-05T15:22:23;10.65;;;7.10;;
16228;SDS011;8222;51.462;12.630;2023-02-05T15:24:52;2.60;;;2.40;;
16228;SDS011;8222;51.462;12.630;2023-02-05T15:27:22;2.88;;;2.67;;
16228;SDS011;8222;51.462;12.630;2023-02-05T15:29:58;3.47;;;2.22;;
16228;SDS011;8222;51.462;12.630;2023-02-05T15:32:33;2.90;;;2.50;;
16228;SDS011;8222;51.462;12.630;2023-02-05T15:35:15;2.30;;;2.10;;
16228;SDS011;8222;51.462;12.630;2023-02-05T15:37:48;2.53;;;1.98;;
16228;SDS011;8222;51.462;12.630;2023-02-05T15:40:32;2.60;;;2.20;;
16228;SDS011;8222;51.462;12.630;2023-02-05T15:43:18;2.95;;;2.08;;
16228;SDS011;8222;51.462;12.630;2023-02-05T15:45:56;2.47;;;2.27;;
16228;SDS011;8222;51.462;12.630;2023-02-05T15:48:26;2.90;;;1.90;;
16228;SDS011;8222;51.462;12.630;2023-02-05T15:50:59;2.75;;;2.25;;
16228;SDS011;8222;51.462;12.630;2023-02-05T15:53:33;4.00;;;2.10;;
16228;SDS011;8222;51.462;12.630;2023-02-05T15:58:32;3.50;;;2.33;;
16228;SDS011;8222;51.462;12.630;2023-02-05T16:00:58;1.87;;;1.77;;
16228;SDS011;8222;51.462;12.630;2023-02-05T16:03:25;2.65;;;2.13;;
16228;SDS011;8222;51.462;12.630;2023-02-05T16:05:56;2.05;;;1.85;;
16228;SDS011;8222;51.462;12.630;2023-02-05T16:08:24;2.67;;;2.00;;
16228;SDS011;8222;51.462;12.630;2023-02-05T16:10:58;2.25;;;2.05;;
16228;SDS011;8222;51.462;12.630;2023-02-05T16:13:29;2.90;;;2.05;;
16228;SDS011;8222;51.462;12.630;2023-02-05T16:21:19;4.40;;;2.75;;
16228;SDS011;8222;51.462;12.630;2023-02-05T16:24:11;4.07;;;2.90;;
16228;SDS011;8222;51.462;12.630;2023-02-05T16:26:42;4.78;;;3.58;;
16228;SDS011;8222;51.462;12.630;2023-02-05T16:34:57;4.60;;;4.03;;
16228;SDS011;8222;51.462;12.630;2023-02-05T16:37:27;5.47;;;3.70;;
16228;SDS011;8222;51.462;12.630;2023-02-05T16:39:54;4.63;;;4.07;;
16228;SDS011;8222;51.462;12.630;2023-02-05T16:42:27;5.32;;;3.60;;
16228;SDS011;8222;51.462;12.630;2023-02-05T16:47:32;6.27;;;2.60;;
16228;SDS011;8222;51.462;12.630;2023-02-05T16:49:57;4.07;;;3.40;;
16228;SDS011;8222;51.462;12.630;2023-02-05T16:52:33;4.37;;;3.97;;
16228;SDS011;8222;51.462;12.630;2023-02-05T16:57:52;4.97;;;4.43;;
16228;SDS011;8222;51.462;12.630;2023-02-05T17:00:20;7.15;;;4.47;;
16228;SDS011;8222;51.462;12.630;2023-02-05T17:02:51;5.32;;;4.68;;
16228;SDS011;8222;51.462;12.630;2023-02-05T17:07:57;6.20;;;5.60;;
16228;SDS011;8222;51.462;12.630;2023-02-05T17:10:24;5.78;;;5.28;;
16228;SDS011;8222;51.462;12.630;2023-02-05T17:12:53;17.20;;;14.13;;
16228;SDS011;8222;51.462;12.630;2023-02-05T17:15:29;8.55;;;7.05;;
16228;SDS011;8222;51.462;12.630;2023-02-05T17:18:01;7.68;;;5.90;;
16228;SDS011;8222;51.462;12.630;2023-02-05T17:23:56;6.10;;;4.25;;
16228;SDS011;8222;51.462;12.630;2023-02-05T17:26:26;6.25;;;5.20;;
16228;SDS011;8222;51.462;12.630;2023-02-05T17:28:55;8.50;;;6.13;;
16228;SDS011;8222;51.462;12.630;2023-02-05T17:31:24;5.90;;;4.70;;
16228;SDS011;8222;51.462;12.630;2023-02-05T17:33:54;6.78;;;5.25;;
16228;SDS011;8222;51.462;12.630;2023-02-05T17:36:21;8.60;;;6.40;;
16228;SDS011;8222;51.462;12.630;2023-02-05T17:38:48;9.77;;;7.28;;
16228;SDS011;8222;51.462;12.630;2023-02-05T17:41:17;10.82;;;9.23;;
16228;SDS011;8222;51.462;12.630;2023-02-05T17:44:09;10.52;;;9.43;;
16228;SDS011;8222;51.462;12.630;2023-02-05T17:46:36;18.08;;;13.32;;
16228;SDS011;8222;51.462;12.630;2023-02-05T17:49:02;16.63;;;14.85;;
16228;SDS011;8222;51.462;12.630;2023-02-05T17:51:27;7.80;;;7.00;;
16228;SDS011;8222;51.462;12.630;2023-02-05T17:53:53;7.57;;;6.77;;
16228;SDS011;8222;51.462;12.630;2023-02-05T17:56:19;6.75;;;5.65;;
16228;SDS011;8222;51.462;12.630;2023-02-05T17:58:46;6.45;;;5.25;;